Time;durP1;ratioP1;P1;durP2;ratioP2;P2;SDS_P1;SDS_P2;PMS_P1;PMS_P2;Temp;Humidity;BMP_temperature;BMP_pressure;BME280_temperature;BME280_humidity;BME280_pressure;Samples;Min_cycle;Max_cycle;Signal;HPM_P1;HPM_P2
2021/05/22 00:00:19;;;;;;;11.9;4.6;;;;;;;11.68;100;97907.33;;;;
2021/05/22 00:10:18;;;;;;;7.3;3.1;;;;;;;11.48;100;97890.84;;;;
2021/05/22 00:20:17;;;;;;;5.7;2.6;;;;;;;11.35;100;97869.52;;;;
2021/05/22 00:30:16;;;;;;;6.3;2.8;;;;;;;11.05;100;97837.2;;;;
2021/05/22 00:40:15;;;;;;;6.4;3.1;;;;;;;11.03;100;97814.39;;;;
2021/05/22 00:50:13;;;;;;;5.3;3;;;;;;;11.02;100;97821.69;;;;
2021/05/22 01:00:12;;;;;;;6.8;3.1;;;;;;;11.04;100;97840.22;;;;
2021/05/22 01:10:11;;;;;;;5.2;2.8;;;;;;;10.82;100;97835.16;;;;
2021/05/22 01:20:09;;;;;;;6.9;3.6;;;;;;;10.44;100;97806.38;;;;
2021/05/22 01:30:08;;;;;;;5.7;3.1;;;;;;;10.34;100;97814.03;;;;
2021/05/22 01:40:07;;;;;;;8;3.5;;;;;;;10.04;100;97789.72;;;;
2021/05/22 01:50:05;;;;;;;4.1;2.5;;;;;;;10.03;100;97773.91;;;;
2021/05/22 02:00:04;;;;;;;8;3.3;;;;;;;10.05;100;97767.08;;;;
2021/05/22 02:20:01;;;;;;;4.9;3.4;;;;;;;10.04;100;97767.39;;;;
2021/05/22 02:30:00;;;;;;;5.9;3.7;;;;;;;9.74;100;97768.46;;;;
2021/05/22 02:39:58;;;;;;;5.6;3.7;;;;;;;9.43;100;97768.7;;;;
2021/05/22 02:49:57;;;;;;;11;4.9;;;;;;;9.35;100;97764.92;;;;
2021/05/22 02:59:55;;;;;;;9.6;4.2;;;;;;;9.13;100;97753.58;;;;
2021/05/22 03:09:54;;;;;;;7.1;4;;;;;;;9.08;100;97765.27;;;;
2021/05/22 03:19:52;;;;;;;10.3;5.1;;;;;;;9.24;100;97765.55;;;;
2021/05/22 03:29:51;;;;;;;7.7;4.4;;;;;;;9.53;100;97769.16;;;;
2021/05/22 03:39:49;;;;;;;6.8;4.2;;;;;;;9.67;100;97755.51;;;;
2021/05/22 03:49:49;;;;;;;8.8;4.8;;;;;;;10.09;100;97753.77;;;;
2021/05/22 03:59:49;;;;;;;6.7;4.8;;;;;;;10.36;100;97744.45;;;;
2021/05/22 04:09:45;;;;;;;6.2;4.1;;;;;;;10.4;100;97737.3;;;;
2021/05/22 04:19:44;;;;;;;8.2;3.7;;;;;;;10.79;100;97744.96;;;;
2021/05/22 04:29:43;;;;;;;7.5;4.5;;;;;;;11.14;100;97753.55;;;;
2021/05/22 04:39:41;;;;;;;7.1;4.3;;;;;;;11.79;100;97722.27;;;;
2021/05/22 04:49:40;;;;;;;12.5;6.1;;;;;;;12.42;100;97729.7;;;;
2021/05/22 04:59:39;;;;;;;8.3;4.7;;;;;;;12.82;100;97734.33;;;;
2021/05/22 05:09:38;;;;;;;7.9;4.6;;;;;;;13.06;100;97734.24;;;;
2021/05/22 05:19:37;;;;;;;9.5;5.8;;;;;;;13.26;100;97749.52;;;;
2021/05/22 05:29:39;;;;;;;5.8;4.6;;;;;;;13.8;100;97767.97;;;;
2021/05/22 05:39:36;;;;;;;8.1;4.7;;;;;;;13.39;100;97769.21;;;;
2021/05/22 05:49:35;;;;;;;24.6;16.4;;;;;;;14.03;100;97756.19;;;;
2021/05/22 05:59:34;;;;;;;6.7;5.1;;;;;;;15.07;100;97777.18;;;;
2021/05/22 06:09:33;;;;;;;9.1;7.3;;;;;;;15.24;100;97800.4;;;;
2021/05/22 06:19:32;;;;;;;7.5;4.3;;;;;;;15.7;100;97774.17;;;;
2021/05/22 06:29:32;;;;;;;7;5.1;;;;;;;16.01;100;97779.39;;;;
2021/05/22 06:39:31;;;;;;;8.8;4.5;;;;;;;16.76;100;97788.77;;;;
2021/05/22 06:49:32;;;;;;;12.4;4.5;;;;;;;17.19;100;97771.05;;;;
2021/05/22 06:59:30;;;;;;;7.9;5.7;;;;;;;17.59;100;97771.18;;;;
2021/05/22 07:09:30;;;;;;;14;5.7;;;;;;;17.73;100;97776.78;;;;
2021/05/22 07:19:30;;;;;;;7.4;4.4;;;;;;;17.95;100;97766.85;;;;
2021/05/22 07:29:30;;;;;;;7.9;5.9;;;;;;;18.17;100;97762.38;;;;
2021/05/22 07:39:29;;;;;;;8.3;4.5;;;;;;;18.62;96.97559;97772.89;;;;
2021/05/22 07:49:37;;;;;;;10.4;5.3;;;;;;;18.87;94.46875;97764.86;;;;
2021/05/22 07:59:29;;;;;;;7.2;3.9;;;;;;;19.35;90.56934;97770.94;;;;
2021/05/22 08:09:29;;;;;;;17.8;3.7;;;;;;;19.24;84.9502;97775.57;;;;
2021/05/22 08:19:29;;;;;;;9;4;;;;;;;18.22;88.12207;97765.56;;;;
2021/05/22 08:29:28;;;;;;;6.7;4.3;;;;;;;17.97;90.86426;97743.53;;;;
2021/05/22 08:39:28;;;;;;;5.2;2.8;;;;;;;18;96.26953;97733.8;;;;
2021/05/22 08:49:40;;;;;;;9.9;3.9;;;;;;;17.95;94.63965;97724.02;;;;
2021/05/22 08:59:28;;;;;;;11.7;3.9;;;;;;;17.91;97.07129;97734.1;;;;
2021/05/22 09:09:27;;;;;;;6.6;4.5;;;;;;;17.64;96.33984;97737.34;;;;
2021/05/22 09:19:27;;;;;;;6.4;3;;;;;;;17.04;100;97765.42;;;;
2021/05/22 09:29:26;;;;;;;12;6.3;;;;;;;16.52;100;97807.02;;;;
2021/05/22 09:39:26;;;;;;;7.2;4.6;;;;;;;15.84;100;97826.06;;;;
2021/05/22 09:49:25;;;;;;;7.7;3.6;;;;;;;14.3;100;97862.16;;;;
2021/05/22 09:59:25;;;;;;;6.6;4.8;;;;;;;13.4;100;97874.41;;;;
2021/05/22 10:09:24;;;;;;;6.4;4.6;;;;;;;13.31;100;97878.39;;;;
2021/05/22 10:19:23;;;;;;;7.7;4.9;;;;;;;12.67;100;97879.1;;;;
2021/05/22 10:29:22;;;;;;;11.8;4.6;;;;;;;12.62;100;97884.75;;;;
2021/05/22 10:39:21;;;;;;;6;3.2;;;;;;;12.42;100;97885.64;;;;
2021/05/22 10:49:20;;;;;;;5.1;2.3;;;;;;;12.22;100;97902.72;;;;
2021/05/22 10:59:19;;;;;;;5.8;2.1;;;;;;;12.22;100;97911.59;;;;
2021/05/22 11:09:18;;;;;;;5.7;4;;;;;;;12.44;100;97918.51;;;;
2021/05/22 11:19:17;;;;;;;3.5;1.8;;;;;;;12.38;100;97925.27;;;;
2021/05/22 11:29:16;;;;;;;3.7;2.1;;;;;;;12.76;100;97924.97;;;;
2021/05/22 11:39:15;;;;;;;2.8;1.8;;;;;;;13.17;100;97932.88;;;;
2021/05/22 11:49:14;;;;;;;3.4;1.6;;;;;;;13.03;100;97938.61;;;;
2021/05/22 11:59:13;;;;;;;4;2.2;;;;;;;13.16;100;97942.11;;;;
2021/05/22 12:09:12;;;;;;;6.3;3.7;;;;;;;13.32;100;97942.22;;;;
2021/05/22 12:19:11;;;;;;;7;3;;;;;;;13.8;100;97963.77;;;;
2021/05/22 12:29:10;;;;;;;5.7;3.8;;;;;;;13.87;100;97949.64;;;;
2021/05/22 12:39:09;;;;;;;5.1;3.1;;;;;;;13.97;100;97951.86;;;;
2021/05/22 12:49:09;;;;;;;4.3;2.2;;;;;;;14.26;100;97942.59;;;;
2021/05/22 12:59:08;;;;;;;4.4;2.6;;;;;;;14.73;100;97939.95;;;;
2021/05/22 13:09:07;;;;;;;7.3;2;;;;;;;15.25;100;97934.2;;;;
2021/05/22 13:19:07;;;;;;;4.4;1.7;;;;;;;15.48;100;97935.13;;;;
2021/05/22 13:29:06;;;;;;;5.8;1.7;;;;;;;15;100;97950.7;;;;
2021/05/22 13:39:06;;;;;;;3.8;2.1;;;;;;;15.11;100;97932.75;;;;
2021/05/22 13:49:05;;;;;;;3.3;1.6;;;;;;;15.51;100;97937.16;;;;
2021/05/22 13:59:04;;;;;;;5.8;1.9;;;;;;;15.5;100;97951.88;;;;
2021/05/22 14:09:04;;;;;;;3.6;1.9;;;;;;;15.42;100;97947.39;;;;
2021/05/22 14:19:03;;;;;;;6.4;2.6;;;;;;;15.33;100;97961.18;;;;
2021/05/22 14:29:03;;;;;;;4.5;2.3;;;;;;;16.19;99.31055;97956.41;;;;
2021/05/22 14:39:02;;;;;;;3.1;1.9;;;;;;;16.37;94.90625;97965.7;;;;
2021/05/22 14:49:02;;;;;;;5.4;2.3;;;;;;;17.58;95.9502;97949.45;;;;
2021/05/22 14:59:01;;;;;;;3.4;2;;;;;;;17.12;93.44922;97946.02;;;;
2021/05/22 15:09:01;;;;;;;4.4;2.5;;;;;;;17.96;90.55273;97934.74;;;;
2021/05/22 15:19:01;;;;;;;4;2.2;;;;;;;17.74;95.41699;97950.04;;;;
2021/05/22 15:29:01;;;;;;;5.3;2;;;;;;;16.85;95.58984;97953.36;;;;
2021/05/22 15:39:00;;;;;;;2.8;1.2;;;;;;;17.48;89.07227;97939.16;;;;
2021/05/22 15:59:00;;;;;;;4.6;2.3;;;;;;;16.79;90.22363;97952.11;;;;
2021/05/22 16:09:00;;;;;;;5.7;2.3;;;;;;;15.99;94.06543;97952.93;;;;
2021/05/22 16:18:59;;;;;;;5;2.4;;;;;;;15.47;96.69922;97955.28;;;;
2021/05/22 16:28:59;;;;;;;6.9;3.3;;;;;;;18.13;90.88184;97966.1;;;;
2021/05/22 16:38:58;;;;;;;4.3;2.1;;;;;;;18.09;83.4043;97975.03;;;;
2021/05/22 16:48:58;;;;;;;5.5;1.9;;;;;;;19.49;84.06738;97970.55;;;;
2021/05/22 16:59:00;;;;;;;7.9;3.7;;;;;;;19.03;82.3623;97981.88;;;;
2021/05/22 17:08:58;;;;;;;5.8;3.1;;;;;;;20.36;77.99609;97982.33;;;;
2021/05/22 17:18:58;;;;;;;4.7;3.1;;;;;;;17.79;84.50293;97990.62;;;;
2021/05/22 17:28:58;;;;;;;4.2;2.2;;;;;;;16.75;88.40137;98005.68;;;;
2021/05/22 17:38:58;;;;;;;5.1;2.3;;;;;;;16.51;89.39258;98008.7;;;;
2021/05/22 17:49:01;;;;;;;7;3.4;;;;;;;15.27;90.25391;98007.96;;;;
2021/05/22 17:58:57;;;;;;;4.5;2.2;;;;;;;13.83;95.63086;98009.13;;;;
2021/05/22 18:08:56;;;;;;;5.5;2.1;;;;;;;13.34;96.32617;98011.11;;;;
2021/05/22 18:18:56;;;;;;;2.8;1.5;;;;;;;12.75;99.23828;98026.13;;;;
2021/05/22 18:28:55;;;;;;;6.5;2.2;;;;;;;12.45;100;98041.72;;;;
2021/05/22 18:38:55;;;;;;;7.3;3;;;;;;;11.97;100;98059.29;;;;
2021/05/22 18:48:53;;;;;;;7;3.7;;;;;;;11.63;100;98077.59;;;;
2021/05/22 18:58:52;;;;;;;6.8;3.6;;;;;;;11.53;100;98090.32;;;;
2021/05/22 19:08:51;;;;;;;8.6;3.5;;;;;;;11.78;100;98107.53;;;;
2021/05/22 19:18:51;;;;;;;11.9;3.9;;;;;;;11.85;100;98178.01;;;;
2021/05/22 19:28:50;;;;;;;4.2;1.9;;;;;;;11.67;100;98197.27;;;;
2021/05/22 19:38:51;;;;;;;4.8;2.8;;;;;;;11.4;100;98163.39;;;;
2021/05/22 19:48:46;;;;;;;1.6;0.6;;;;;;;11.8;84.37109;98124.17;;;;
2021/05/22 19:58:45;;;;;;;4.7;1.1;;;;;;;11.33;93.96484;98165.8;;;;
2021/05/22 20:08:44;;;;;;;2;0.8;;;;;;;10.56;100;98180.18;;;;
2021/05/22 20:18:43;;;;;;;3.5;2;;;;;;;10;100;98171.05;;;;
2021/05/22 20:28:44;;;;;;;5.1;1.9;;;;;;;9.69;100;98161.45;;;;
2021/05/22 20:38:43;;;;;;;6.6;2.9;;;;;;;9.53;100;98164.59;;;;
2021/05/22 20:48:39;;;;;;;2.8;1.6;;;;;;;9.59;100;98201;;;;
2021/05/22 20:58:38;;;;;;;3.5;1.8;;;;;;;9.66;100;98223.97;;;;
2021/05/22 21:08:37;;;;;;;5.2;3.2;;;;;;;9.62;100;98296.44;;;;
2021/05/22 21:18:35;;;;;;;4.8;3.3;;;;;;;9.8;100;98313.47;;;;
2021/05/22 21:28:34;;;;;;;24.5;17.5;;;;;;;9.89;100;98269.34;;;;
2021/05/22 21:38:33;;;;;;;9.4;5.4;;;;;;;9.61;100;98249.13;;;;
2021/05/22 21:48:32;;;;;;;6.3;2.9;;;;;;;9.17;100;98239.2;;;;
2021/05/22 21:58:30;;;;;;;6.2;2.8;;;;;;;8.87;100;98235.36;;;;
2021/05/22 22:08:30;;;;;;;3.9;2.4;;;;;;;8.89;100;98237.73;;;;
2021/05/22 22:18:28;;;;;;;5.9;2.6;;;;;;;8.71;100;98236.8;;;;
2021/05/22 22:28:26;;;;;;;4.7;2.2;;;;;;;8.62;100;98241.31;;;;
2021/05/22 22:38:25;;;;;;;4.5;2.5;;;;;;;8.47;100;98249.69;;;;
2021/05/22 22:48:25;;;;;;;10.2;6.1;;;;;;;8.29;100;98256.01;;;;
2021/05/22 22:58:22;;;;;;;11.1;4.3;;;;;;;8.21;100;98245.94;;;;
2021/05/22 23:08:20;;;;;;;7.9;4.9;;;;;;;8.18;100;98255.39;;;;
2021/05/22 23:18:19;;;;;;;4.7;2.9;;;;;;;8.25;100;98258.47;;;;
2021/05/22 23:28:17;;;;;;;8;4.4;;;;;;;8.04;100;98260.77;;;;
2021/05/22 23:38:16;;;;;;;8.3;4.2;;;;;;;7.89;100;98265.62;;;;
2021/05/22 23:48:16;;;;;;;6.7;3.1;;;;;;;7.82;100;98259.84;;;;
2021/05/22 23:58:13;;;;;;;6.3;3.3;;;;;;;7.58;100;98274.23;;;;
